Thunder radar more information blitzortung!


Radar de pluja more information rain snow radar


Visita la nostra xarxa de llocs de meteo:

Template documentation
and downloads

And another site



No particular awareness of the weather is required.    There are no Weather-warnings

Pagina Historial Weather Underground text

Diari Resum Setembre 23, 2017 Unitats:  Imperial    Mètric   Tant
« Previous Dia
SegĂźent Dia »
Diari Setmana Mensual Anual Personalitzada
  Maxima: Minima: Media:
Temperatura: TemperatureC °F 14.6 °F 22 °F
Punt de rosada: DewpointC °F 13.0 °F 15.6 °F
Humitat: Humidity % 53 % 67 %
Wind Speed: WindSpeedKMH mph 0.0 mph 5.2 mph
RĂ fegues de vent: WindSpeedGustKMH mph - -
Vent:- - SSW
Pression baro: PressurehPa in 1018.8 in -
Precipitacions: 0.0 in    
Historical Graphs
 
 
Dades de taula per Setembre 23, 2017
Temps Temperatura Punt de rosada Pression baro Vent Wind Speed RĂ fegues de vent Humitat Rainfall Rate (Hourly)
TemperatureC °F DewpointC °F PressurehPa in Calm     Humidity % HourlyPrecipMM in
00:03 17.1 °F 14.0 °F 1022.9 in Calm     82 % 0.0 in
00:08 17.2 °F 14.1 °F 1022.9 in Calm     82 % 0.0 in
04:10 14.6 °F 13.0 °F 1022.9 in WNW 1.6 mph 3.2 mph 90 % 0.0 in
04:20 14.8 °F 13.2 °F 1022.9 in WNW 3.2 mph 3.2 mph 90 % 0.0 in
04:30 15.0 °F 13.4 °F 1022.9 in Calm   3.2 mph 90 % 0.0 in
04:40 15.4 °F 13.8 °F 1022.9 in Calm   1.6 mph 90 % 0.0 in
04:50 15.9 °F 14.3 °F 1022.9 in Calm   1.6 mph 90 % 0.0 in
05:00 16.5 °F 14.5 °F 1022.9 in SSE 1.6 mph 4.8 mph 88 % 0.0 in
05:10 17.4 °F 14.8 °F 1022.9 in Calm   4.8 mph 85 % 0.0 in
05:20 18.0 °F 14.9 °F 1022.9 in NE 1.6 mph 3.2 mph 82 % 0.0 in
05:30 19.2 °F 15.4 °F 1022.9 in Calm   3.2 mph 79 % 0.0 in
05:40 19.3 °F 15.2 °F 1022.9 in NW 1.6 mph 3.2 mph 77 % 0.0 in
05:50 19.4 °F 15.1 °F 1022.9 in NNW 1.6 mph 3.2 mph 76 % 0.0 in
06:00 19.7 °F 15.2 °F 1022.9 in NNE 1.6 mph 6.4 mph 75 % 0.0 in
06:10 19.9 °F 15.3 °F 1022.9 in NE 4.8 mph 4.8 mph 75 % 0.0 in
06:20 20.1 °F 15.1 °F 1022.9 in NE 4.8 mph 4.8 mph 73 % 0.0 in
06:30 20.1 °F 14.9 °F 1022.9 in NE 3.2 mph 6.4 mph 72 % 0.0 in
06:40 20.5 °F 15.3 °F 1022.9 in NNE 3.2 mph 6.4 mph 72 % 0.0 in
06:50 20.5 °F 14.8 °F 1022.9 in NE 4.8 mph 6.4 mph 70 % 0.0 in
07:00 21.0 °F 15.3 °F 1022.9 in NE 4.8 mph 4.8 mph 70 % 0.0 in
08:00 23.1 °F 15.9 °F 1021.9 in East 3.2 mph 4.8 mph 64 % 0.0 in
12:09 21.7 °F 15.8 °F 1022.9 in West 3.2 mph 3.5 mph 69 % 0.0 in
12:14 21.5 °F 15.3 °F 1022.9 in NNE 3.7 mph 3.7 mph 68 % 0.0 in
12:19 21.6 °F 15.4 °F 1022.9 in NNE 2.6 mph 2.6 mph 68 % 0.0 in
12:24 22.1 °F 15.4 °F 1022.9 in NE 1.9 mph 1.9 mph 66 % 0.0 in
12:29 22.4 °F 15.5 °F 1022.9 in SE 4.7 mph 4.7 mph 65 % 0.0 in
12:34 22.8 °F 15.4 °F 1021.9 in SSE 3.7 mph 3.7 mph 63 % 0.0 in
12:39 22.5 °F 15.1 °F 1021.9 in East 7.4 mph 7.4 mph 63 % 0.0 in
12:44 23.1 °F 16.2 °F 1021.9 in ESE 3.7 mph 3.7 mph 65 % 0.0 in
13:07 24.4 °F 16.7 °F 1021.9 in SW 7.4 mph 7.4 mph 62 % 0.0 in
13:12 24.7 °F 16.4 °F 1021.9 in South 7.4 mph 7.4 mph 60 % 0.0 in
13:17 25.2 °F 16.6 °F 1020.9 in SW 7.9 mph 7.9 mph 59 % 0.0 in
13:22 25.1 °F 16.5 °F 1020.9 in SSW 7.4 mph 7.4 mph 59 % 0.0 in
13:27 25.3 °F 16.4 °F 1020.9 in SSE 3.9 mph 3.9 mph 58 % 0.0 in
13:32 24.9 °F 16.1 °F 1021.9 in South 5.6 mph 5.6 mph 58 % 0.0 in
13:37 25.4 °F 16.6 °F 1021.9 in SSE 3.5 mph 3.5 mph 58 % 0.0 in
13:42 25.6 °F 16.7 °F 1021.9 in WNW 5.6 mph 5.6 mph 58 % 0.0 in
13:47 25.6 °F 16.7 °F 1021.9 in SW 7.4 mph 7.4 mph 58 % 0.0 in
13:52 25.6 °F 16.4 °F 1021.9 in SW 9.3 mph 9.3 mph 57 % 0.0 in
13:57 25.5 °F 15.2 °F 1021.9 in South 11.1 mph 11.1 mph 53 % 0.0 in
14:02 25.7 °F 16.0 °F 1020.9 in South 3.7 mph 3.7 mph 55 % 0.0 in
14:07 26.3 °F 16.8 °F 1020.9 in SSW 7.4 mph 7.4 mph 56 % 0.0 in
14:12 26.1 °F 16.3 °F 1020.9 in WSW 7.4 mph 7.4 mph 55 % 0.0 in
14:17 26.0 °F 16.3 °F 1020.9 in WSW 5.0 mph 5.0 mph 55 % 0.0 in
14:22 25.7 °F 15.7 °F 1020.9 in SSE 1.9 mph   54 % 0.0 in
14:27 25.6 °F 15.3 °F 1020.9 in NNE 9.3 mph 9.3 mph 53 % 0.0 in
14:33 24.7 °F 15.1 °F 1020.9 in SE 7.9 mph 7.9 mph 55 % 0.0 in
14:38 24.3 °F 14.9 °F 1020.9 in ESE 13.0 mph 13.0 mph 56 % 0.0 in
14:43 24.0 °F 14.9 °F 1020.9 in SSE 11.4 mph 11.4 mph 57 % 0.0 in
14:48 24.3 °F 15.5 °F 1020.9 in East 7.4 mph 7.4 mph 58 % 0.0 in
14:58 23.9 °F 15.9 °F 1020.9 in East 16.7 mph 16.7 mph 61 % 0.0 in
15:03 23.8 °F 16.1 °F 1019.9 in SSE 9.3 mph 9.3 mph 62 % 0.0 in
15:08 24.3 °F 16.3 °F 1019.9 in SSW 7.4 mph 7.4 mph 61 % 0.0 in
15:13 24.6 °F 16.3 °F 1019.9 in ESE 3.7 mph 3.7 mph 60 % 0.0 in
15:18 25.3 °F 16.7 °F 1019.9 in SW 11.1 mph 11.1 mph 59 % 0.0 in
15:23 25.8 °F 16.6 °F 1019.9 in WSW 5.6 mph 5.6 mph 57 % 0.0 in
15:28 26.1 °F 16.9 °F 1019.9 in SSW 9.3 mph 9.3 mph 57 % 0.0 in
15:33 26.6 °F 17.1 °F 1019.9 in SSW 9.3 mph 9.5 mph 56 % 0.0 in
15:38 26.5 °F 16.7 °F 1019.9 in WSW 20.4 mph 20.4 mph 55 % 0.0 in
15:43 26.1 °F 16.3 °F 1019.9 in West 11.1 mph 11.1 mph 55 % 0.0 in
15:48 26.5 °F 16.7 °F 1019.9 in SW 11.4 mph 11.4 mph 55 % 0.0 in
15:49 26.5 °F 16.7 °F 1019.9 in South 11.1 mph 11.1 mph 55 % 0.0 in
15:54 26.1 °F 16.3 °F 1019.9 in SW 11.1 mph 11.1 mph 55 % 0.0 in
15:59 25.1 °F 15.4 °F 1019.9 in SSW 16.7 mph 16.7 mph 55 % 0.0 in
16:04 25.0 °F 15.3 °F 1019.9 in SW 14.8 mph 14.8 mph 55 % 0.0 in
16:09 25.4 °F 16.0 °F 1019.9 in WSW 10.0 mph 10.0 mph 56 % 0.0 in
16:14 25.3 °F 15.9 °F 1019.9 in SW 7.4 mph 7.4 mph 56 % 0.0 in
16:19 25.4 °F 16.0 °F 1019.9 in South 7.4 mph 7.4 mph 56 % 0.0 in
16:24 25.1 °F 15.7 °F 1019.9 in SSW 13.0 mph 13.0 mph 56 % 0.0 in
16:29 24.9 °F 15.8 °F 1019.9 in WSW 11.1 mph 11.1 mph 57 % 0.0 in
16:34 25.0 °F 15.6 °F 1019.9 in SW 10.3 mph 10.3 mph 56 % 0.0 in
16:39 24.3 °F 15.2 °F 1019.9 in SSW 13.0 mph 13.0 mph 57 % 0.0 in
16:44 24.6 °F 15.8 °F 1019.9 in SW 3.7 mph 3.7 mph 58 % 0.0 in
16:49 24.8 °F 16.0 °F 1019.9 in WSW 3.7 mph 3.7 mph 58 % 0.0 in
16:54 24.9 °F 16.1 °F 1019.9 in SSW 9.3 mph 9.3 mph 58 % 0.0 in
16:59 24.7 °F 15.9 °F 1019.9 in SW 11.9 mph 11.9 mph 58 % 0.0 in
17:04 24.8 °F 16.0 °F 1019.9 in SW 3.7 mph 3.7 mph 58 % 0.0 in
17:09 24.8 °F 16.0 °F 1019.9 in ESE 11.1 mph 11.1 mph 58 % 0.0 in
17:14 24.6 °F 15.8 °F 1019.9 in SSW 13.0 mph 13.0 mph 58 % 0.0 in
17:19 24.7 °F 15.9 °F 1019.9 in South 9.3 mph 9.3 mph 58 % 0.0 in
17:24 24.8 °F 16.0 °F 1019.9 in SSW 5.6 mph 5.6 mph 58 % 0.0 in
17:29 24.6 °F 16.1 °F 1019.9 in SSW 7.4 mph 7.4 mph 59 % 0.0 in
17:34 24.5 °F 15.9 °F 1019.9 in SSW 11.4 mph 11.4 mph 59 % 0.0 in
17:39 24.2 °F 15.9 °F 1019.9 in SW 7.4 mph 7.4 mph 60 % 0.0 in
17:44 24.3 °F 16.1 °F 1019.9 in WSW 7.4 mph 7.4 mph 60 % 0.0 in
17:49 24.3 °F 15.8 °F 1019.9 in West 6.1 mph 6.1 mph 59 % 0.0 in
17:54 24.3 °F 16.1 °F 1019.9 in SW 9.3 mph 9.3 mph 60 % 0.0 in
17:59 24.3 °F 16.1 °F 1019.9 in SW 11.1 mph 11.1 mph 60 % 0.0 in
18:04 24.2 °F 16.2 °F 1019.9 in South 9.3 mph 9.3 mph 61 % 0.0 in
18:09 23.9 °F 16.2 °F 1019.9 in South 7.4 mph 7.4 mph 62 % 0.0 in
18:14 23.7 °F 16.2 °F 1019.9 in SSE 3.2 mph 3.2 mph 63 % 0.0 in
18:19 23.7 °F 16.2 °F 1019.9 in WNW 9.7 mph 9.7 mph 63 % 0.0 in
18:24 23.5 °F 16.1 °F 1019.9 in SW 4.7 mph 4.7 mph 63 % 0.0 in
18:29 23.2 °F 15.8 °F 1019.9 in WSW 7.4 mph 7.4 mph 63 % 0.0 in
18:34 22.9 °F 15.7 °F 1019.9 in WSW 9.0 mph 9.0 mph 64 % 0.0 in
18:39 22.8 °F 15.6 °F 1019.9 in WNW 7.4 mph 7.4 mph 64 % 0.0 in
18:44 22.8 °F 15.9 °F 1019.9 in SW 9.3 mph 9.3 mph 65 % 0.0 in
18:49 22.8 °F 15.9 °F 1019.9 in WSW 5.8 mph 5.8 mph 65 % 0.0 in
18:54 22.7 °F 15.8 °F 1019.9 in SW 3.2 mph   65 % 0.0 in
18:59 22.7 °F 15.8 °F 1019.9 in SW 7.4 mph 7.4 mph 65 % 0.0 in
19:04 22.6 °F 15.9 °F 1018.8 in SSW 3.7 mph 3.7 mph 66 % 0.0 in
19:09 22.6 °F 15.9 °F 1018.8 in SW 3.9 mph 3.9 mph 66 % 0.0 in
19:14 22.5 °F 15.8 °F 1018.8 in SW 5.0 mph 5.0 mph 66 % 0.0 in
19:19 22.3 °F 15.7 °F 1020.9 in SW 4.2 mph 4.2 mph 66 % 0.0 in
19:24 22.2 °F 15.6 °F 1020.9 in WSW 5.0 mph 5.0 mph 66 % 0.0 in
19:29 22.1 °F 15.4 °F 1020.9 in West 5.6 mph 5.6 mph 66 % 0.0 in
19:34 22.0 °F 15.6 °F 1019.9 in SSW 3.7 mph 3.7 mph 67 % 0.0 in
19:39 21.8 °F 15.6 °F 1019.9 in WSW 4.2 mph 4.2 mph 68 % 0.0 in
19:44 21.7 °F 15.8 °F 1019.9 in SW 3.9 mph   69 % 0.0 in
19:49 21.5 °F 15.6 °F 1019.9 in SW 5.6 mph 5.6 mph 69 % 0.0 in
19:54 21.4 °F 15.5 °F 1019.9 in SW 3.7 mph 3.7 mph 69 % 0.0 in
19:59 21.3 °F 15.6 °F 1019.9 in WSW 1.9 mph   70 % 0.0 in
20:04 21.3 °F 15.6 °F 1019.9 in WSW 1.9 mph   70 % 0.0 in
20:09 21.2 °F 15.5 °F 1019.9 in SW 5.6 mph 5.6 mph 70 % 0.0 in
20:14 21.2 °F 15.5 °F 1019.9 in WSW 3.7 mph 3.7 mph 70 % 0.0 in
20:19 21.1 °F 15.6 °F 1019.9 in WSW 3.7 mph 3.7 mph 71 % 0.0 in
20:24 21.0 °F 15.6 °F 1019.9 in SW 3.7 mph 3.7 mph 71 % 0.0 in
20:29 20.9 °F 15.4 °F 1019.9 in SW 3.7 mph 3.7 mph 71 % 0.0 in
20:34 20.8 °F 15.6 °F 1019.9 in WSW 3.7 mph 3.7 mph 72 % 0.0 in
20:39 20.7 °F 15.4 °F 1019.9 in SW 5.0 mph 5.0 mph 72 % 0.0 in
20:44 20.7 °F 15.7 °F 1019.9 in WSW 3.2 mph 3.2 mph 73 % 0.0 in
20:49 20.6 °F 15.6 °F 1019.9 in WSW 3.7 mph 3.7 mph 73 % 0.0 in
20:54 20.5 °F 15.5 °F 1019.9 in WSW 3.7 mph 3.7 mph 73 % 0.0 in
20:59 20.5 °F 15.5 °F 1019.9 in WSW 3.7 mph 3.7 mph 73 % 0.0 in
21:04 20.4 °F 15.4 °F 1020.9 in WSW 3.7 mph 3.7 mph 73 % 0.0 in
21:09 20.4 °F 15.6 °F 1020.9 in SW 3.7 mph 3.7 mph 74 % 0.0 in
21:14 20.3 °F 15.5 °F 1020.9 in WSW 3.7 mph 3.7 mph 74 % 0.0 in
21:19 20.2 °F 15.6 °F 1020.9 in SW 3.7 mph 3.7 mph 75 % 0.0 in
21:24 20.1 °F 15.6 °F 1020.9 in SW 1.9 mph 1.9 mph 75 % 0.0 in
21:29 20.1 °F 15.6 °F 1020.9 in SW 3.7 mph 3.7 mph 75 % 0.0 in
21:34 19.9 °F 15.6 °F 1020.9 in WSW 3.7 mph 3.7 mph 76 % 0.0 in
21:39 19.8 °F 15.4 °F 1020.9 in SW 3.7 mph 3.9 mph 76 % 0.0 in
21:44 19.8 °F 15.4 °F 1020.9 in SW 3.7 mph 3.7 mph 76 % 0.0 in
21:49 19.7 °F 15.6 °F 1021.9 in SW 4.2 mph 4.2 mph 77 % 0.0 in
21:54 19.6 °F 15.4 °F 1021.9 in SW 3.7 mph 3.7 mph 77 % 0.0 in
21:59 19.6 °F 15.4 °F 1021.9 in WSW 3.7 mph 3.7 mph 77 % 0.0 in
22:04 19.5 °F 15.3 °F 1021.9 in SW 3.7 mph 3.7 mph 77 % 0.0 in
22:09 19.5 °F 15.3 °F 1021.9 in WSW 3.7 mph 3.7 mph 77 % 0.0 in
22:14 19.4 °F 15.4 °F 1021.9 in WSW 2.6 mph 2.6 mph 78 % 0.0 in
22:19 19.4 °F 15.4 °F 1021.9 in WSW 1.9 mph 1.9 mph 78 % 0.0 in
22:24 19.3 °F 15.6 °F 1021.9 in WSW 1.9 mph   79 % 0.0 in
22:29 19.3 °F 15.6 °F 1021.9 in Calm     79 % 0.0 in
22:34 19.2 °F 15.4 °F 1021.9 in WSW 1.4 mph   79 % 0.0 in
22:39 19.3 °F 15.8 °F 1021.9 in WSW 1.9 mph   80 % 0.0 in
22:44 19.2 °F 15.7 °F 1021.9 in Calm     80 % 0.0 in
22:49 19.2 °F 15.7 °F 1021.9 in Calm     80 % 0.0 in
22:54 19.1 °F 15.8 °F 1021.9 in Calm     81 % 0.0 in
22:59 19.1 °F 15.8 °F 1021.9 in Calm     81 % 0.0 in
23:04 19.1 °F 15.8 °F 1021.9 in Calm     81 % 0.0 in
23:09 19.0 °F 15.7 °F 1021.9 in Calm     81 % 0.0 in
23:14 19.0 °F 15.7 °F 1021.9 in Calm     81 % 0.0 in
23:19 19.0 °F 15.8 °F 1020.9 in Calm     82 % 0.0 in
23:24 19.0 °F 15.8 °F 1020.9 in Calm     82 % 0.0 in
23:29 18.8 °F 15.8 °F 1020.9 in Calm     83 % 0.0 in
23:35 18.8 °F 15.8 °F 1021.9 in Calm     83 % 0.0 in
23:39 18.7 °F 15.8 °F 1021.9 in Calm     83 % 0.0 in
23:45 18.7 °F 15.8 °F 1021.9 in Calm     83 % 0.0 in
23:50 18.6 °F 15.7 °F 1021.9 in WSW 1.4 mph   83 % 0.0 in
23:55 18.6 °F 15.8 °F 1021.9 in Calm     84 % 0.0 in
Meteo Sesrovires
Elogis d' Weather Underground - 2 mb

Guio original per  Jim McMurry - jmcmurry@mwt.net Adaptat per a la plantilla per  Wim van der Kuil - Leuven-Template.eu

Trobareu la nostra informacio del temps tambe a:

Weather Underground

AWEKAS